Terminal Aerodrome Forecast
Issued by NWS

Home | Current Version | Previous Version | Text Only | Print | Product List | Glossary On
Versions: 1 2 3 4 5 6 7 8 9 10 11 12 13 14 15 16 17 18
000
FTAK31 PAJN 010100 AAA
TAFAGY
TAF AMD
PAGY 010118Z 0101/0124 23010G20KT P6SM SCT040
     FM010300 21005KT P6SM SKC
     FM010600 00000KT P6SM VCFG SKC
     FM011600 21003KT P6SM SKC
     FM012100 22014KT P6SM FEW040
      AMD LTD TO CLD VIS AND WIND=

USA.gov is the U.S. government's official web portal to all federal, state and local government web resources and services.